createdAt,value
2018-11-29T00:00:11.041Z,-2.22
2018-11-29T00:02:39.212Z,-2.14
2018-11-29T00:05:07.853Z,-2.15
2018-11-29T00:07:35.902Z,-2.25
2018-11-29T00:10:04.106Z,-2.12
2018-11-29T00:12:33.408Z,-2.16
2018-11-29T00:15:01.782Z,-2.23
2018-11-29T00:17:30.416Z,-2.22
2018-11-29T00:19:58.524Z,-2.10
2018-11-29T00:22:26.837Z,-2.11
2018-11-29T00:24:54.876Z,-2.07
2018-11-29T00:27:22.966Z,-2.06
2018-11-29T00:29:50.872Z,-2.08
2018-11-29T00:32:18.954Z,-1.98
2018-11-29T00:34:48.658Z,-2.09
2018-11-29T00:37:16.568Z,-1.99
2018-11-29T00:39:44.463Z,-1.88
2018-11-29T00:42:12.526Z,-1.90
2018-11-29T00:44:40.573Z,-1.94
2018-11-29T00:47:08.487Z,-1.91
2018-11-29T00:49:36.507Z,-1.86
2018-11-29T00:52:04.607Z,-1.70
2018-11-29T00:54:32.547Z,-1.50
2018-11-29T00:57:00.649Z,-1.69
2018-11-29T00:59:28.865Z,-1.60
2018-11-29T01:02:00.516Z,-1.61
2018-11-29T01:04:28.782Z,-1.78
2018-11-29T01:06:57.130Z,-1.61
2018-11-29T01:09:25.135Z,-1.46
2018-11-29T01:11:53.466Z,-1.34
2018-11-29T01:14:21.644Z,-1.55
2018-11-29T01:16:53.400Z,-1.62
2018-11-29T01:19:21.337Z,-1.62
2018-11-29T01:21:49.263Z,-1.09
2018-11-29T01:24:17.356Z,-1.32
2018-11-29T01:26:45.386Z,-1.43
2018-11-29T01:29:13.339Z,-1.42
2018-11-29T01:31:41.466Z,-1.23
2018-11-29T01:34:09.576Z,-0.88
2018-11-29T01:36:37.631Z,-1.12
2018-11-29T01:39:08.325Z,-0.97
2018-11-29T01:41:37.400Z,-1.11
2018-11-29T01:44:05.414Z,-1.11
2018-11-29T01:46:33.411Z,-1.18
2018-11-29T01:49:01.378Z,-1.44
2018-11-29T01:54:14.508Z,-0.78
2018-11-29T01:56:47.044Z,-0.91
2018-11-29T01:59:16.266Z,-0.76
2018-11-29T02:01:44.900Z,-1.07
2018-11-29T02:04:14.034Z,-0.90
2018-11-29T02:06:44.198Z,-1.02
2018-11-29T02:09:12.447Z,-1.01
2018-11-29T02:11:40.644Z,-1.12
2018-11-29T02:14:09.445Z,-1.13
2018-11-29T02:16:39.997Z,-1.16
2018-11-29T02:19:09.552Z,-1.22
2018-11-29T02:24:51.095Z,-1.38
2018-11-29T02:27:20.039Z,-1.29
2018-11-29T02:29:48.148Z,-1.29
2018-11-29T02:32:16.280Z,-1.35
2018-11-29T02:34:44.287Z,-1.09
2018-11-29T02:37:12.243Z,-0.71
2018-11-29T02:39:40.307Z,-0.80
2018-11-29T02:42:08.424Z,-0.84
2018-11-29T02:44:36.720Z,-0.66
2018-11-29T02:47:04.832Z,-0.55
2018-11-29T02:49:32.856Z,-0.47
2018-11-29T02:52:00.882Z,-0.50
2018-11-29T02:54:28.885Z,-0.26
2018-11-29T02:56:56.838Z,-0.34
2018-11-29T02:59:24.824Z,-0.20
2018-11-29T03:01:53.788Z,-0.16
2018-11-29T03:04:21.815Z,-0.30
2018-11-29T03:06:50.122Z,0.00
2018-11-29T03:09:18.382Z,-0.26
2018-11-29T03:11:46.880Z,-0.18
2018-11-29T03:14:14.842Z,-0.03
2018-11-29T03:16:42.795Z,0.04
2018-11-29T03:19:10.795Z,0.05
2018-11-29T03:21:38.801Z,-0.11
2018-11-29T03:24:06.812Z,-0.27
2018-11-29T03:26:34.991Z,-0.12
2018-11-29T03:29:03.169Z,-0.35
2018-11-29T03:31:31.882Z,-0.56
2018-11-29T03:34:00.237Z,-0.77
2018-11-29T03:36:28.317Z,-0.60
2018-11-29T03:38:56.405Z,-0.64
2018-11-29T03:41:26.283Z,-0.71
2018-11-29T03:43:54.206Z,-0.99
2018-11-29T03:46:28.800Z,-1.04
2018-11-29T03:48:56.813Z,-1.03
2018-11-29T03:51:24.763Z,-1.17
2018-11-29T03:53:52.855Z,-1.25
2018-11-29T03:56:20.882Z,-1.14
2018-11-29T03:58:48.914Z,-1.15
2018-11-29T04:01:17.073Z,-1.16
2018-11-29T04:03:45.237Z,-1.28
2018-11-29T04:06:14.100Z,-1.30
2018-11-29T04:08:42.493Z,-1.52
2018-11-29T04:11:10.721Z,-1.38
2018-11-29T04:13:39.899Z,-1.38
2018-11-29T04:16:10.904Z,-1.29
2018-11-29T04:18:39.015Z,-1.39
2018-11-29T04:21:07.156Z,-1.24
2018-11-29T04:23:35.680Z,-1.29
2018-11-29T04:26:03.884Z,-1.26
2018-11-29T04:28:32.106Z,-1.15
2018-11-29T04:31:00.242Z,-1.02
2018-11-29T04:33:28.363Z,-0.92
2018-11-29T04:35:56.406Z,-0.93
2018-11-29T04:38:24.469Z,-1.06
2018-11-29T04:40:52.918Z,-0.92
2018-11-29T04:43:21.012Z,-1.11
2018-11-29T04:45:59.849Z,-1.35
2018-11-29T04:48:27.936Z,-1.48
2018-11-29T04:50:55.973Z,-1.58
2018-11-29T04:53:23.887Z,-1.60
2018-11-29T04:55:51.850Z,-1.48
2018-11-29T04:58:19.873Z,-1.46
2018-11-29T05:00:47.898Z,-1.48
2018-11-29T05:03:15.921Z,-1.60
2018-11-29T05:05:44.396Z,-1.68
2018-11-29T05:08:12.418Z,-1.50
2018-11-29T05:10:40.755Z,-1.62
2018-11-29T05:13:08.890Z,-1.84
2018-11-29T05:15:36.961Z,-1.88
2018-11-29T05:18:05.540Z,-1.92
2018-11-29T05:20:33.600Z,-1.89
2018-11-29T05:23:01.584Z,-1.44
2018-11-29T05:25:29.532Z,-1.31
2018-11-29T05:27:57.441Z,-1.35
2018-11-29T05:30:25.611Z,-1.53
2018-11-29T05:32:53.588Z,-1.41
2018-11-29T05:35:21.513Z,-1.34
2018-11-29T05:37:49.591Z,-1.35
2018-11-29T05:40:17.749Z,-1.39
2018-11-29T05:42:46.274Z,-1.26
2018-11-29T05:45:14.255Z,-1.33
2018-11-29T05:47:42.191Z,-1.49
2018-11-29T05:50:11.809Z,-1.68
2018-11-29T05:52:40.094Z,-1.75
2018-11-29T05:55:09.808Z,-1.84
2018-11-29T05:57:37.940Z,-1.91
2018-11-29T06:00:09.559Z,-1.94
2018-11-29T06:02:37.512Z,-1.93
2018-11-29T06:05:06.623Z,-1.85
2018-11-29T06:07:34.624Z,-1.76
2018-11-29T06:10:02.590Z,-1.75
2018-11-29T06:12:30.652Z,-1.64
2018-11-29T06:14:58.586Z,-1.46
2018-11-29T06:17:26.788Z,-1.51
2018-11-29T06:19:54.848Z,-1.47
2018-11-29T06:22:24.580Z,-1.54
2018-11-29T06:24:52.490Z,-1.59
2018-11-29T06:27:20.980Z,-1.55
2018-11-29T06:29:48.981Z,-1.58
2018-11-29T06:32:17.337Z,-1.65
2018-11-29T06:34:45.371Z,-1.62
2018-11-29T06:37:13.994Z,-1.66
2018-11-29T06:39:42.785Z,-1.75
2018-11-29T06:42:11.011Z,-1.59
2018-11-29T06:44:39.127Z,-1.60
2018-11-29T06:47:08.938Z,-1.59
2018-11-29T06:49:44.489Z,-1.56
2018-11-29T06:52:12.512Z,-1.46
2018-11-29T06:54:40.733Z,-1.54
2018-11-29T06:57:08.989Z,-1.60
2018-11-29T06:59:37.064Z,-1.71
2018-11-29T07:02:05.491Z,-1.68
2018-11-29T07:04:34.203Z,-1.56
2018-11-29T07:07:02.433Z,-1.29
2018-11-29T07:09:30.624Z,-1.23
2018-11-29T07:11:59.304Z,-1.17
2018-11-29T07:14:32.582Z,-1.03
2018-11-29T07:17:16.178Z,-1.13
2018-11-29T07:19:44.981Z,-1.00
2018-11-29T07:22:13.079Z,-0.81
2018-11-29T07:24:41.027Z,-0.84
2018-11-29T07:27:08.941Z,-0.94
2018-11-29T07:29:36.952Z,-0.79
2018-11-29T07:32:05.733Z,-0.57
2018-11-29T07:34:38.808Z,-0.53
2018-11-29T07:37:07.571Z,-1.31
2018-11-29T07:39:37.386Z,-0.46
2018-11-29T07:42:05.660Z,-0.25
2018-11-29T07:44:34.413Z,-0.19
2018-11-29T07:47:03.332Z,-0.21
2018-11-29T07:49:31.523Z,-0.28
2018-11-29T07:51:59.856Z,-0.35
2018-11-29T07:54:27.885Z,-0.45
2018-11-29T07:56:56.031Z,-0.42
2018-11-29T07:59:24.189Z,-0.44
2018-11-29T08:01:54.044Z,-0.56
2018-11-29T08:04:21.954Z,-0.50
2018-11-29T08:06:49.950Z,-0.28
2018-11-29T08:09:17.992Z,-0.53
2018-11-29T08:11:46.040Z,-0.60
2018-11-29T08:14:14.788Z,-0.53
2018-11-29T08:16:42.909Z,-0.58
2018-11-29T08:19:10.891Z,-0.52
2018-11-29T08:21:39.025Z,-0.31
2018-11-29T08:24:07.321Z,-0.15
2018-11-29T08:26:35.474Z,-0.04
2018-11-29T08:29:03.566Z,-0.05
2018-11-29T08:31:31.561Z,-0.41
2018-11-29T08:33:59.643Z,-0.57
2018-11-29T08:36:27.709Z,-0.67
2018-11-29T08:38:56.552Z,-0.66
2018-11-29T08:41:24.552Z,-0.52
2018-11-29T08:43:55.276Z,-0.44
2018-11-29T08:46:26.379Z,-0.18
2018-11-29T08:48:56.075Z,0.08
2018-11-29T08:51:25.274Z,-1.58
2018-11-29T08:53:53.330Z,0.34
2018-11-29T08:56:22.232Z,0.29
2018-11-29T08:58:50.522Z,0.42
2018-11-29T09:01:18.619Z,0.27
2018-11-29T09:03:46.656Z,0.31
2018-11-29T09:06:14.627Z,0.34
2018-11-29T09:08:42.714Z,0.40
2018-11-29T09:11:11.981Z,0.26
2018-11-29T09:13:42.274Z,0.38
2018-11-29T09:16:11.697Z,0.49
2018-11-29T09:18:39.829Z,0.62
2018-11-29T09:21:08.329Z,0.58
2018-11-29T09:23:50.908Z,0.62
2018-11-29T09:26:19.989Z,0.60
2018-11-29T09:28:50.056Z,0.69
2018-11-29T09:31:20.015Z,0.45
2018-11-29T09:33:48.088Z,0.49
2018-11-29T09:36:16.144Z,0.58
2018-11-29T09:38:44.208Z,0.54
2018-11-29T09:41:13.274Z,0.76
2018-11-29T09:43:41.341Z,0.86
2018-11-29T09:46:09.420Z,0.88
2018-11-29T09:48:37.693Z,0.73
2018-11-29T09:51:06.624Z,0.65
2018-11-29T09:53:34.832Z,0.58
2018-11-29T09:56:03.980Z,0.39
2018-11-29T09:58:31.931Z,0.51
2018-11-29T10:00:59.975Z,0.65
2018-11-29T10:03:29.300Z,0.65
2018-11-29T10:05:57.688Z,0.50
2018-11-29T10:08:26.740Z,0.62
2018-11-29T10:10:55.125Z,0.60
2018-11-29T10:13:24.456Z,0.44
2018-11-29T10:15:52.977Z,0.38
2018-11-29T10:18:21.354Z,0.39
2018-11-29T10:20:49.397Z,0.37
2018-11-29T10:24:00.303Z,0.43
2018-11-29T10:26:28.434Z,0.68
2018-11-29T10:28:56.496Z,0.65
2018-11-29T10:31:25.348Z,0.75
2018-11-29T10:33:53.334Z,0.59
2018-11-29T10:36:21.501Z,0.68
2018-11-29T10:38:49.955Z,0.64
2018-11-29T10:41:20.279Z,0.68
2018-11-29T10:43:49.243Z,0.53
2018-11-29T10:46:17.467Z,0.31
2018-11-29T10:48:49.494Z,0.31
2018-11-29T10:51:17.560Z,0.29
2018-11-29T10:53:46.298Z,0.29
2018-11-29T10:56:14.284Z,0.13
2018-11-29T10:58:43.594Z,0.04
2018-11-29T11:01:16.853Z,0.16
2018-11-29T11:03:45.097Z,0.24
2018-11-29T11:06:14.075Z,0.26
2018-11-29T11:08:42.449Z,0.03
2018-11-29T11:11:12.233Z,0.16
2018-11-29T11:13:44.293Z,0.05
2018-11-29T11:16:12.605Z,0.14
2018-11-29T11:21:24.387Z,-0.11
2018-11-29T11:23:59.197Z,0.05
2018-11-29T11:26:27.920Z,-0.06
2018-11-29T11:28:55.896Z,-0.32
2018-11-29T11:31:30.752Z,-0.40
2018-11-29T11:33:53.660Z,-0.90
2018-11-29T11:36:21.690Z,-0.74
2018-11-29T11:38:51.192Z,-0.84
2018-11-29T11:41:22.622Z,-1.15
2018-11-29T11:43:53.154Z,-1.16
2018-11-29T11:46:21.836Z,-1.11
2018-11-29T11:48:49.849Z,-0.98
2018-11-29T11:51:18.152Z,-0.66
2018-11-29T11:53:47.554Z,-0.40
2018-11-29T11:56:17.263Z,-0.35
2018-11-29T11:58:45.619Z,-0.34
2018-11-29T12:01:14.524Z,-0.29
2018-11-29T12:03:42.716Z,-0.46
2018-11-29T12:06:10.996Z,-0.63
2018-11-29T12:08:39.207Z,-0.69
2018-11-29T12:11:07.848Z,-0.43
2018-11-29T12:13:35.951Z,-0.39
2018-11-29T12:16:05.402Z,-0.47
2018-11-29T12:18:33.481Z,-0.73
2018-11-29T12:21:01.503Z,-0.64
2018-11-29T12:23:29.889Z,-0.62
2018-11-29T12:25:57.945Z,-0.66
2018-11-29T12:28:25.939Z,-0.68
2018-11-29T12:30:54.624Z,-0.84
2018-11-29T12:33:24.553Z,-0.99
2018-11-29T12:35:54.957Z,-1.04
2018-11-29T12:38:23.085Z,-0.97
2018-11-29T12:40:58.400Z,-1.12
2018-11-29T12:43:27.071Z,-1.07
2018-11-29T12:45:55.180Z,-0.85
2018-11-29T12:48:23.692Z,-0.90
2018-11-29T12:50:52.239Z,-0.99
2018-11-29T12:53:35.204Z,-1.03
2018-11-29T12:56:03.399Z,-1.22
2018-11-29T12:58:31.412Z,-1.29
2018-11-29T13:00:59.412Z,-1.29
2018-11-29T13:03:27.419Z,-1.24
2018-11-29T13:05:55.380Z,-1.07
2018-11-29T13:08:24.470Z,-1.01
2018-11-29T13:10:52.825Z,-1.10
2018-11-29T13:13:20.952Z,-1.17
2018-11-29T13:15:48.908Z,-1.02
2018-11-29T13:18:17.754Z,-1.04
2018-11-29T13:20:45.759Z,-1.02
2018-11-29T13:23:14.381Z,-1.19
2018-11-29T13:25:42.999Z,-1.85
2018-11-29T13:28:11.848Z,-1.09
2018-11-29T13:30:46.431Z,-1.16
2018-11-29T13:33:14.781Z,-1.44
2018-11-29T13:35:42.806Z,-1.53
2018-11-29T13:38:12.158Z,-1.46
2018-11-29T13:40:41.473Z,-1.29
2018-11-29T13:43:10.892Z,-1.34
2018-11-29T13:45:39.046Z,-1.45
2018-11-29T13:48:09.742Z,-1.50
2018-11-29T13:50:40.401Z,-1.50
2018-11-29T13:53:08.687Z,-1.56
2018-11-29T13:55:36.876Z,-1.59
2018-11-29T13:58:05.721Z,-1.59
2018-11-29T14:00:34.064Z,-1.56
2018-11-29T14:03:06.254Z,-1.60
2018-11-29T14:05:34.939Z,-1.80
2018-11-29T14:08:04.008Z,-1.77
2018-11-29T14:10:32.579Z,-1.77
2018-11-29T14:13:01.486Z,-1.63
2018-11-29T14:15:29.633Z,-1.52
2018-11-29T14:17:57.717Z,-1.37
2018-11-29T14:20:26.834Z,-1.02
2018-11-29T14:22:59.634Z,-1.02
2018-11-29T14:25:29.608Z,-1.15
2018-11-29T14:27:58.912Z,-1.40
2018-11-29T14:30:28.931Z,-1.26
2018-11-29T14:32:57.984Z,-1.38
2018-11-29T14:35:25.973Z,-1.59
2018-11-29T14:37:54.036Z,-1.52
2018-11-29T14:40:22.930Z,-1.50
2018-11-29T14:42:51.056Z,-1.47
2018-11-29T14:45:23.996Z,-1.57
2018-11-29T14:47:53.136Z,-1.48
2018-11-29T14:50:25.950Z,-1.51
2018-11-29T14:52:54.211Z,-1.51
2018-11-29T14:55:22.360Z,-1.70
2018-11-29T14:57:58.012Z,-1.80
2018-11-29T15:00:26.936Z,-1.73
2018-11-29T15:02:56.156Z,-1.75
2018-11-29T15:05:25.476Z,-1.66
2018-11-29T15:07:53.397Z,-1.69
2018-11-29T15:10:22.116Z,-1.64
2018-11-29T15:12:50.128Z,-1.62
2018-11-29T15:15:18.332Z,-1.59
2018-11-29T15:17:46.971Z,-1.54
2018-11-29T15:20:22.108Z,-1.58
2018-11-29T15:22:52.326Z,-1.63
2018-11-29T15:25:20.549Z,-1.63
2018-11-29T15:27:48.809Z,-1.58
2018-11-29T15:30:18.058Z,-1.62
2018-11-29T15:32:46.114Z,-1.57
2018-11-29T15:35:14.077Z,-1.59
2018-11-29T15:37:42.092Z,-1.54
2018-11-29T15:40:11.619Z,-1.65
2018-11-29T15:42:40.328Z,-1.59
2018-11-29T15:45:15.032Z,-1.73
2018-11-29T15:47:43.921Z,-1.62
2018-11-29T15:50:13.921Z,-1.52
2018-11-29T15:52:42.141Z,-1.74
2018-11-29T15:55:13.280Z,-1.74
2018-11-29T15:57:41.341Z,-1.61
2018-11-29T16:00:12.967Z,-1.53
2018-11-29T16:02:42.344Z,-1.66
2018-11-29T16:05:11.271Z,-1.84
2018-11-29T16:07:40.864Z,-1.67
2018-11-29T16:10:11.931Z,-1.56
2018-11-29T16:12:41.211Z,-1.57
2018-11-29T16:15:13.941Z,-1.88
2018-11-29T16:17:42.229Z,-1.69
2018-11-29T16:20:21.980Z,-1.70
2018-11-29T16:22:50.060Z,-1.59
2018-11-29T16:25:18.135Z,-1.60
2018-11-29T16:27:46.464Z,-1.72
2018-11-29T16:30:22.649Z,-1.69
2018-11-29T16:32:50.605Z,-1.74
2018-11-29T16:35:20.892Z,-1.58
2018-11-29T16:37:49.190Z,-1.65
2018-11-29T16:40:17.337Z,-1.57
2018-11-29T16:42:45.613Z,-1.73
2018-11-29T16:45:14.137Z,-1.61
2018-11-29T16:47:42.812Z,-1.40
2018-11-29T16:50:14.142Z,-1.44
2018-11-29T16:52:42.203Z,-1.43
2018-11-29T16:55:10.977Z,-1.53
2018-11-29T16:57:41.021Z,-1.49
2018-11-29T17:00:25.915Z,-1.49
2018-11-29T17:02:54.161Z,-1.49
2018-11-29T17:05:22.581Z,-1.43
2018-11-29T17:07:50.692Z,-1.44
2018-11-29T17:10:20.057Z,-1.47
2018-11-29T17:12:51.428Z,-1.62
2018-11-29T17:15:19.726Z,-1.66
2018-11-29T17:17:48.794Z,-1.75
2018-11-29T17:20:18.048Z,-1.68
2018-11-29T17:22:48.477Z,-1.83
2018-11-29T17:25:18.375Z,-1.80
2018-11-29T17:27:47.117Z,-1.54
2018-11-29T17:30:24.582Z,-1.55
2018-11-29T17:32:55.867Z,-1.52
2018-11-29T17:35:24.756Z,-1.69
2018-11-29T17:37:54.825Z,-1.63
2018-11-29T17:40:22.979Z,-1.71
2018-11-29T17:42:52.544Z,-1.74
2018-11-29T17:45:22.581Z,-1.65
2018-11-29T17:47:51.992Z,-1.84
2018-11-29T17:50:24.262Z,-1.74
2018-11-29T17:52:56.566Z,-1.64
2018-11-29T17:55:25.353Z,-1.68
2018-11-29T17:57:53.286Z,-1.66
2018-11-29T18:00:22.632Z,-1.64
2018-11-29T18:02:50.757Z,-1.54
2018-11-29T18:05:19.416Z,-1.67
2018-11-29T18:07:47.425Z,-1.78
2018-11-29T18:10:19.503Z,-1.84
2018-11-29T18:12:49.892Z,-1.82
2018-11-29T18:15:20.230Z,-1.92
2018-11-29T18:17:48.375Z,-2.07
2018-11-29T18:20:16.521Z,-2.26
2018-11-29T18:22:47.588Z,-2.21
2018-11-29T18:25:16.309Z,-2.32
2018-11-29T18:27:49.733Z,-2.31
2018-11-29T18:30:19.165Z,-2.32
2018-11-29T18:32:49.527Z,-2.18
2018-11-29T18:35:18.639Z,-2.26
2018-11-29T18:37:48.061Z,-2.33
2018-11-29T18:40:17.788Z,-2.20
2018-11-29T18:42:53.405Z,-2.15
2018-11-29T18:45:21.267Z,-2.31
2018-11-29T18:47:50.312Z,-2.26
2018-11-29T18:50:21.439Z,-2.22
2018-11-29T18:52:49.809Z,-2.30
2018-11-29T18:55:18.678Z,-2.31
2018-11-29T18:57:46.985Z,-2.06
2018-11-29T19:00:20.284Z,-2.10
2018-11-29T19:02:48.368Z,-1.97
2018-11-29T19:05:16.374Z,-1.93
2018-11-29T19:07:44.557Z,-1.98
2018-11-29T19:10:14.264Z,-1.94
2018-11-29T19:12:58.594Z,-1.84
2018-11-29T19:15:26.905Z,-2.06
2018-11-29T19:17:54.960Z,-2.04
2018-11-29T19:20:23.276Z,-1.94
2018-11-29T19:22:51.534Z,-1.90
2018-11-29T19:25:20.240Z,-1.95
2018-11-29T19:27:49.485Z,-1.89
2018-11-29T19:30:29.753Z,-2.04
2018-11-29T19:33:09.911Z,-2.18
2018-11-29T19:35:38.297Z,-2.26
2018-11-29T19:38:06.516Z,-2.41
2018-11-29T19:40:34.681Z,-2.24
2018-11-29T19:43:03.054Z,-2.29
2018-11-29T19:45:32.135Z,-2.45
2018-11-29T19:48:01.291Z,-2.52
2018-11-29T19:50:32.739Z,-2.56
2018-11-29T19:53:01.920Z,-2.58
2018-11-29T19:55:32.512Z,-2.59
2018-11-29T19:58:02.283Z,-2.70
2018-11-29T20:00:30.636Z,-2.69
2018-11-29T20:02:59.992Z,-2.60
2018-11-29T20:05:28.057Z,-2.65
2018-11-29T20:07:56.386Z,-2.60
2018-11-29T20:10:24.558Z,-2.64
2018-11-29T20:13:03.593Z,-2.81
2018-11-29T20:15:31.838Z,-2.96
2018-11-29T20:18:07.136Z,-3.00
2018-11-29T20:20:35.263Z,-3.15
2018-11-29T20:23:03.410Z,-3.15
2018-11-29T20:25:31.690Z,-3.25
2018-11-29T20:28:00.471Z,-3.24
2018-11-29T20:30:29.968Z,-3.35
2018-11-29T20:32:58.469Z,-2.91
2018-11-29T20:35:27.814Z,-3.10
2018-11-29T20:37:56.564Z,-2.93
2018-11-29T20:40:28.671Z,-3.06
2018-11-29T20:42:58.102Z,-2.70
2018-11-29T20:45:47.317Z,-2.45
2018-11-29T20:48:17.640Z,-2.50
2018-11-29T20:50:45.952Z,-2.33
2018-11-29T20:53:15.658Z,-2.66
2018-11-29T20:55:55.155Z,-2.76
2018-11-29T20:58:32.030Z,-2.83
2018-11-29T21:01:00.492Z,-2.90
2018-11-29T21:03:28.838Z,-2.86
2018-11-29T21:06:04.135Z,-2.81
2018-11-29T21:08:33.244Z,-2.93
2018-11-29T21:11:01.529Z,-3.09
2018-11-29T21:13:29.693Z,-3.16
2018-11-29T21:15:57.891Z,-3.19
2018-11-29T21:18:25.924Z,-3.24
2018-11-29T21:20:53.997Z,-3.42
2018-11-29T21:23:22.031Z,-3.29
2018-11-29T21:25:50.069Z,-3.30
2018-11-29T21:28:18.066Z,-3.47
2018-11-29T21:30:46.012Z,-3.20
2018-11-29T21:33:20.688Z,-3.45
2018-11-29T21:35:48.930Z,-3.31
2018-11-29T21:38:18.173Z,-3.47
2018-11-29T21:40:50.851Z,-3.54
2018-11-29T21:43:18.952Z,-3.72
2018-11-29T21:45:47.199Z,-3.67
2018-11-29T21:48:15.172Z,-3.56
2018-11-29T21:50:43.334Z,-3.60
2018-11-29T21:53:11.720Z,-3.64
2018-11-29T21:55:40.332Z,-3.66
2018-11-29T21:58:08.405Z,-3.71
2018-11-29T22:00:36.384Z,-3.70
2018-11-29T22:03:04.541Z,-3.74
2018-11-29T22:05:33.178Z,-3.61
2018-11-29T22:08:01.265Z,-3.43
2018-11-29T22:10:29.317Z,-3.46
2018-11-29T22:12:57.280Z,-3.46
2018-11-29T22:15:25.357Z,-3.57
2018-11-29T22:18:02.647Z,-3.43
2018-11-29T22:20:31.756Z,-3.21
2018-11-29T22:23:00.101Z,-3.26
2018-11-29T22:25:28.376Z,-3.30
2018-11-29T22:27:57.115Z,-3.15
2018-11-29T22:30:25.392Z,-3.26
2018-11-29T22:32:54.695Z,-3.18
2018-11-29T22:35:23.301Z,-3.21
2018-11-29T22:37:55.302Z,-3.29
2018-11-29T22:40:24.374Z,-3.44
2018-11-29T22:42:52.802Z,-3.53
2018-11-29T22:45:20.868Z,-3.77
2018-11-29T22:47:50.178Z,-3.72
2018-11-29T22:50:18.970Z,-3.71
2018-11-29T22:52:48.155Z,-3.57
2018-11-29T22:55:16.281Z,-3.44
2018-11-29T22:57:44.736Z,-3.47
2018-11-29T23:00:17.121Z,-3.43
2018-11-29T23:02:45.649Z,-3.37
2018-11-29T23:05:13.992Z,-3.42
2018-11-29T23:07:42.056Z,-3.41
2018-11-29T23:10:10.928Z,-3.52
2018-11-29T23:12:39.572Z,-3.37
2018-11-29T23:15:11.033Z,-3.56
2018-11-29T23:17:39.101Z,-3.58
2018-11-29T23:20:11.915Z,-3.53
2018-11-29T23:22:40.302Z,-3.59
2018-11-29T23:25:11.562Z,-3.66
2018-11-29T23:27:39.686Z,-3.71
2018-11-29T23:30:11.152Z,-3.97
2018-11-29T23:32:39.425Z,-4.09
2018-11-29T23:35:07.394Z,-4.08
2018-11-29T23:37:35.307Z,-4.28
2018-11-29T23:40:03.789Z,-4.45
2018-11-29T23:42:31.731Z,-4.49
2018-11-29T23:44:59.669Z,-4.61
2018-11-29T23:47:27.957Z,-4.68
2018-11-29T23:49:55.949Z,-4.68
2018-11-29T23:52:24.320Z,-4.60
2018-11-29T23:54:52.529Z,-4.59
2018-11-29T23:57:20.794Z,-4.78
2018-11-29T23:59:48.828Z,-4.71
